sensor_id;sensor_type;location;lat;lon;timestamp;pressure;altitude;pressure_sealevel;temperature;humidity
71504;BME280;59323;50.874;7.028;2022-12-19T00:00:21;101965.38;;;-1.14;96.42
71504;BME280;59323;50.874;7.028;2022-12-19T00:02:47;101965.13;;;-1.12;97.01
71504;BME280;59323;50.874;7.028;2022-12-19T00:05:12;101968.31;;;-1.10;97.26
71504;BME280;59323;50.874;7.028;2022-12-19T00:07:37;101953.69;;;-1.08;96.70
71504;BME280;59323;50.874;7.028;2022-12-19T00:10:03;101948.59;;;-1.09;97.14
71504;BME280;59323;50.874;7.028;2022-12-19T00:12:29;101947.28;;;-1.07;97.58
71504;BME280;59323;50.874;7.028;2022-12-19T00:14:54;101943.56;;;-1.06;97.23
71504;BME280;59323;50.874;7.028;2022-12-19T00:17:20;101928.09;;;-1.04;97.45
71504;BME280;59323;50.874;7.028;2022-12-19T00:19:45;101945.47;;;-0.96;97.55
71504;BME280;59323;50.874;7.028;2022-12-19T00:22:10;101949.75;;;-0.95;97.41
71504;BME280;59323;50.874;7.028;2022-12-19T00:24:36;101937.78;;;-0.92;97.47
71504;BME280;59323;50.874;7.028;2022-12-19T00:27:01;101930.31;;;-0.90;97.61
71504;BME280;59323;50.874;7.028;2022-12-19T00:29:26;101927.09;;;-0.92;97.96
71504;BME280;59323;50.874;7.028;2022-12-19T00:31:51;101922.09;;;-0.84;97.93
71504;BME280;59323;50.874;7.028;2022-12-19T00:34:17;101924.50;;;-0.82;98.12
71504;BME280;59323;50.874;7.028;2022-12-19T00:36:42;101930.88;;;-0.83;98.49
71504;BME280;59323;50.874;7.028;2022-12-19T00:39:08;101923.16;;;-0.80;98.97
71504;BME280;59323;50.874;7.028;2022-12-19T00:41:36;101916.22;;;-0.81;99.05
71504;BME280;59323;50.874;7.028;2022-12-19T00:44:08;101905.03;;;-0.78;98.36
71504;BME280;59323;50.874;7.028;2022-12-19T00:46:35;101908.25;;;-0.76;98.75
71504;BME280;59323;50.874;7.028;2022-12-19T00:49:01;101904.53;;;-0.70;99.10
71504;BME280;59323;50.874;7.028;2022-12-19T00:51:28;101897.59;;;-0.71;99.06
71504;BME280;59323;50.874;7.028;2022-12-19T00:53:55;101899.19;;;-0.75;99.39
71504;BME280;59323;50.874;7.028;2022-12-19T00:56:29;101907.47;;;-0.71;99.27
71504;BME280;59323;50.874;7.028;2022-12-19T00:58:56;101904.50;;;-0.75;99.49
71504;BME280;59323;50.874;7.028;2022-12-19T01:01:23;101909.34;;;-0.72;99.87
71504;BME280;59323;50.874;7.028;2022-12-19T01:03:50;101899.47;;;-0.66;100.00
71504;BME280;59323;50.874;7.028;2022-12-19T01:06:15;101897.63;;;-0.66;100.00
71504;BME280;59323;50.874;7.028;2022-12-19T01:08:41;101901.41;;;-0.61;99.48
71504;BME280;59323;50.874;7.028;2022-12-19T01:11:06;101904.06;;;-0.61;100.00
71504;BME280;59323;50.874;7.028;2022-12-19T01:13:35;101896.31;;;-0.63;100.00
71504;BME280;59323;50.874;7.028;2022-12-19T01:16:06;101892.09;;;-0.54;100.00
71504;BME280;59323;50.874;7.028;2022-12-19T01:18:32;101891.03;;;-0.48;100.00
71504;BME280;59323;50.874;7.028;2022-12-19T01:21:04;101881.97;;;-0.47;100.00
71504;BME280;59323;50.874;7.028;2022-12-19T01:23:29;101874.50;;;-0.45;99.88
71504;BME280;59323;50.874;7.028;2022-12-19T01:25:55;101862.75;;;-0.44;99.88
71504;BME280;59323;50.874;7.028;2022-12-19T01:28:21;101867.59;;;-0.36;99.97
71504;BME280;59323;50.874;7.028;2022-12-19T01:30:47;101857.44;;;-0.34;100.00
71504;BME280;59323;50.874;7.028;2022-12-19T01:33:15;101860.91;;;-0.33;100.00
71504;BME280;59323;50.874;7.028;2022-12-19T01:35:41;101862.50;;;-0.37;100.00
71504;BME280;59323;50.874;7.028;2022-12-19T01:38:07;101872.66;;;-0.39;100.00
71504;BME280;59323;50.874;7.028;2022-12-19T01:40:36;101871.59;;;-0.33;100.00
71504;BME280;59323;50.874;7.028;2022-12-19T01:43:02;101873.47;;;-0.34;100.00
71504;BME280;59323;50.874;7.028;2022-12-19T01:45:29;101870.25;;;-0.36;100.00
71504;BME280;59323;50.874;7.028;2022-12-19T01:48:03;101873.19;;;-0.32;100.00
71504;BME280;59323;50.874;7.028;2022-12-19T01:50:38;101863.06;;;-0.25;100.00
71504;BME280;59323;50.874;7.028;2022-12-19T01:53:08;101864.69;;;-0.24;100.00
71504;BME280;59323;50.874;7.028;2022-12-19T01:55:36;101856.66;;;-0.19;99.67
71504;BME280;59323;50.874;7.028;2022-12-19T01:58:02;101853.22;;;-0.14;99.44
71504;BME280;59323;50.874;7.028;2022-12-19T02:00:28;101847.59;;;-0.13;99.04
71504;BME280;59323;50.874;7.028;2022-12-19T02:03:01;101844.66;;;-0.16;99.60
71504;BME280;59323;50.874;7.028;2022-12-19T02:05:30;101852.94;;;-0.18;99.54
71504;BME280;59323;50.874;7.028;2022-12-19T02:07:56;101846.53;;;-0.12;99.68
71504;BME280;59323;50.874;7.028;2022-12-19T02:10:21;101839.06;;;-0.05;99.53
71504;BME280;59323;50.874;7.028;2022-12-19T02:12:47;101834.25;;;-0.08;98.90
71504;BME280;59323;50.874;7.028;2022-12-19T02:15:14;101829.97;;;-0.09;99.55
71504;BME280;59323;50.874;7.028;2022-12-19T02:23:59;101812.38;;;0.06;98.28
71504;BME280;59323;50.874;7.028;2022-12-19T02:26:40;101814.25;;;0.05;98.14
71504;BME280;59323;50.874;7.028;2022-12-19T02:32:03;101805.97;;;0.07;98.05
71504;BME280;59323;50.874;7.028;2022-12-19T02:34:38;101788.88;;;0.03;98.53
71504;BME280;59323;50.874;7.028;2022-12-19T02:37:12;101773.63;;;0.03;97.97
71504;BME280;59323;50.874;7.028;2022-12-19T02:39:55;101773.63;;;0.03;97.84
71504;BME280;59323;50.874;7.028;2022-12-19T02:42:29;101779.75;;;-0.02;98.32
71504;BME280;59323;50.874;7.028;2022-12-19T02:44:59;101780.06;;;0.02;98.29
71504;BME280;59323;50.874;7.028;2022-12-19T02:47:25;101776.81;;;-0.05;98.20
71504;BME280;59323;50.874;7.028;2022-12-19T02:49:51;101770.66;;;-0.06;98.58
71504;BME280;59323;50.874;7.028;2022-12-19T02:54:46;101770.13;;;-0.03;98.07
71504;BME280;59323;50.874;7.028;2022-12-19T03:04:57;101760.28;;;0.03;98.23
71504;BME280;59323;50.874;7.028;2022-12-19T03:07:28;101760.53;;;0.02;97.97
71504;BME280;59323;50.874;7.028;2022-12-19T03:10:11;101762.41;;;0.06;97.76
71504;BME280;59323;50.874;7.028;2022-12-19T03:12:49;101754.41;;;0.06;98.42
71504;BME280;59323;50.874;7.028;2022-12-19T03:15:18;101752.78;;;0.05;98.21
71504;BME280;59323;50.874;7.028;2022-12-19T03:17:44;101743.19;;;0.04;98.66
71504;BME280;59323;50.874;7.028;2022-12-19T03:22:57;101733.56;;;0.08;99.60
71504;BME280;59323;50.874;7.028;2022-12-19T03:25:23;101746.91;;;0.13;99.42
71504;BME280;59323;50.874;7.028;2022-12-19T03:27:50;101740.50;;;0.04;99.33
71504;BME280;59323;50.874;7.028;2022-12-19T03:30:18;101742.09;;;0.10;99.64
71504;BME280;59323;50.874;7.028;2022-12-19T03:32:45;101737.03;;;0.09;100.00
71504;BME280;59323;50.874;7.028;2022-12-19T03:35:18;101736.50;;;0.07;99.95
71504;BME280;59323;50.874;7.028;2022-12-19T03:37:46;101735.16;;;0.04;100.00
71504;BME280;59323;50.874;7.028;2022-12-19T03:40:16;101736.50;;;0.02;100.00
71504;BME280;59323;50.874;7.028;2022-12-19T03:42:44;101730.88;;;0.03;100.00
71504;BME280;59323;50.874;7.028;2022-12-19T03:45:39;101723.16;;;0.02;100.00
71504;BME280;59323;50.874;7.028;2022-12-19T03:48:23;101726.06;;;0.10;100.00
71504;BME280;59323;50.874;7.028;2022-12-19T03:53:58;101721.50;;;0.16;100.00
71504;BME280;59323;50.874;7.028;2022-12-19T03:59:15;101709.22;;;0.20;100.00
71504;BME280;59323;50.874;7.028;2022-12-19T04:01:43;101700.41;;;0.14;100.00
71504;BME280;59323;50.874;7.028;2022-12-19T04:04:10;101703.34;;;0.23;100.00
71504;BME280;59323;50.874;7.028;2022-12-19T04:06:37;101701.72;;;0.27;100.00
71504;BME280;59323;50.874;7.028;2022-12-19T04:09:03;101693.44;;;0.28;100.00
71504;BME280;59323;50.874;7.028;2022-12-19T04:11:33;101692.88;;;0.31;100.00
71504;BME280;59323;50.874;7.028;2022-12-19T04:14:06;101689.94;;;0.33;100.00
71504;BME280;59323;50.874;7.028;2022-12-19T04:19:30;101692.59;;;0.38;100.00
71504;BME280;59323;50.874;7.028;2022-12-19T04:22:09;101680.84;;;0.39;100.00
71504;BME280;59323;50.874;7.028;2022-12-19T04:24:39;101690.97;;;0.42;100.00
71504;BME280;59323;50.874;7.028;2022-12-19T04:27:07;101683.50;;;0.39;100.00
71504;BME280;59323;50.874;7.028;2022-12-19T04:29:35;101685.09;;;0.40;100.00
71504;BME280;59323;50.874;7.028;2022-12-19T04:32:03;101695.53;;;0.42;100.00
71504;BME280;59323;50.874;7.028;2022-12-19T04:34:32;101688.84;;;0.44;100.00
71504;BME280;59323;50.874;7.028;2022-12-19T04:37:01;101696.59;;;0.46;100.00
71504;BME280;59323;50.874;7.028;2022-12-19T04:39:27;101700.59;;;0.48;100.00
71504;BME280;59323;50.874;7.028;2022-12-19T04:41:52;101706.19;;;0.52;100.00
71504;BME280;59323;50.874;7.028;2022-12-19T04:44:17;101700.81;;;0.57;100.00
71504;BME280;59323;50.874;7.028;2022-12-19T04:46:43;101702.69;;;0.56;100.00
71504;BME280;59323;50.874;7.028;2022-12-19T04:49:08;101706.72;;;0.54;100.00
71504;BME280;59323;50.874;7.028;2022-12-19T04:51:33;101697.34;;;0.56;100.00
71504;BME280;59323;50.874;7.028;2022-12-19T04:53:59;101702.94;;;0.60;100.00
71504;BME280;59323;50.874;7.028;2022-12-19T04:56:24;101698.94;;;0.57;100.00
71504;BME280;59323;50.874;7.028;2022-12-19T04:58:57;101690.13;;;0.57;100.00
71504;BME280;59323;50.874;7.028;2022-12-19T05:01:23;101698.66;;;0.59;100.00
71504;BME280;59323;50.874;7.028;2022-12-19T05:03:49;101685.56;;;0.62;100.00
71504;BME280;59323;50.874;7.028;2022-12-19T05:06:16;101670.84;;;0.60;100.00
71504;BME280;59323;50.874;7.028;2022-12-19T05:08:41;101672.19;;;0.68;100.00
71504;BME280;59323;50.874;7.028;2022-12-19T05:11:08;101677.53;;;0.68;100.00
71504;BME280;59323;50.874;7.028;2022-12-19T05:13:34;101687.69;;;0.60;100.00
71504;BME280;59323;50.874;7.028;2022-12-19T05:16:05;101682.88;;;0.68;100.00
71504;BME280;59323;50.874;7.028;2022-12-19T05:18:31;101686.34;;;0.73;100.00
71504;BME280;59323;50.874;7.028;2022-12-19T05:20:57;101684.47;;;0.74;100.00
71504;BME280;59323;50.874;7.028;2022-12-19T05:23:23;101682.84;;;0.78;100.00
71504;BME280;59323;50.874;7.028;2022-12-19T05:25:48;101674.53;;;0.79;100.00
71504;BME280;59323;50.874;7.028;2022-12-19T05:28:15;101680.13;;;0.83;100.00
71504;BME280;59323;50.874;7.028;2022-12-19T05:30:40;101681.19;;;0.87;100.00
71504;BME280;59323;50.874;7.028;2022-12-19T05:33:06;101678.78;;;0.85;100.00
71504;BME280;59323;50.874;7.028;2022-12-19T05:35:33;101674.47;;;0.89;100.00
71504;BME280;59323;50.874;7.028;2022-12-19T05:37:58;101672.84;;;0.93;100.00
71504;BME280;59323;50.874;7.028;2022-12-19T05:40:24;101674.72;;;0.93;100.00
71504;BME280;59323;50.874;7.028;2022-12-19T05:42:49;101670.44;;;0.97;100.00
71504;BME280;59323;50.874;7.028;2022-12-19T05:45:14;101674.66;;;1.03;100.00
71504;BME280;59323;50.874;7.028;2022-12-19T05:47:39;101674.41;;;1.05;100.00
71504;BME280;59323;50.874;7.028;2022-12-19T05:50:07;101662.56;;;1.11;100.00
71504;BME280;59323;50.874;7.028;2022-12-19T05:52:32;101673.81;;;1.13;100.00
71504;BME280;59323;50.874;7.028;2022-12-19T05:54:58;101675.16;;;1.10;100.00
71504;BME280;59323;50.874;7.028;2022-12-19T05:57:23;101671.72;;;1.05;100.00
71504;BME280;59323;50.874;7.028;2022-12-19T05:59:48;101667.94;;;1.11;100.00
71504;BME280;59323;50.874;7.028;2022-12-19T06:02:14;101672.44;;;1.15;100.00
71504;BME280;59323;50.874;7.028;2022-12-19T06:04:39;101658.00;;;1.16;100.00
71504;BME280;59323;50.874;7.028;2022-12-19T06:07:04;101677.50;;;1.22;100.00
71504;BME280;59323;50.874;7.028;2022-12-19T06:09:30;101681.25;;;1.21;100.00
71504;BME280;59323;50.874;7.028;2022-12-19T06:11:55;101683.66;;;1.22;100.00
71504;BME280;59323;50.874;7.028;2022-12-19T06:14:20;101683.59;;;1.27;100.00
71504;BME280;59323;50.874;7.028;2022-12-19T06:16:46;101684.13;;;1.30;100.00
71504;BME280;59323;50.874;7.028;2022-12-19T06:19:11;101689.47;;;1.30;100.00
71504;BME280;59323;50.874;7.028;2022-12-19T06:22:01;101688.97;;;1.27;100.00
71504;BME280;59323;50.874;7.028;2022-12-19T06:24:26;101687.34;;;1.32;100.00
71504;BME280;59323;50.874;7.028;2022-12-19T06:26:51;101686.56;;;1.31;100.00
71504;BME280;59323;50.874;7.028;2022-12-19T06:29:17;101685.19;;;1.34;100.00
71504;BME280;59323;50.874;7.028;2022-12-19T06:31:43;101690.81;;;1.37;100.00
71504;BME280;59323;50.874;7.028;2022-12-19T06:34:09;101690.00;;;1.37;100.00
71504;BME280;59323;50.874;7.028;2022-12-19T06:36:35;101693.75;;;1.36;100.00
71504;BME280;59323;50.874;7.028;2022-12-19T06:39:01;101695.88;;;1.39;100.00
71504;BME280;59323;50.874;7.028;2022-12-19T06:41:27;101688.69;;;1.34;100.00
71504;BME280;59323;50.874;7.028;2022-12-19T06:44:13;101679.84;;;1.34;100.00
71504;BME280;59323;50.874;7.028;2022-12-19T06:46:39;101684.13;;;1.30;100.00
71504;BME280;59323;50.874;7.028;2022-12-19T06:49:05;101690.00;;;1.37;100.00
71504;BME280;59323;50.874;7.028;2022-12-19T06:51:31;101686.47;;;1.41;100.00
71504;BME280;59323;50.874;7.028;2022-12-19T06:53:56;101691.03;;;1.41;100.00
71504;BME280;59323;50.874;7.028;2022-12-19T06:56:22;101692.09;;;1.45;100.00
71504;BME280;59323;50.874;7.028;2022-12-19T06:58:48;101683.00;;;1.41;100.00
71504;BME280;59323;50.874;7.028;2022-12-19T07:04:15;101694.53;;;1.41;100.00
71504;BME280;59323;50.874;7.028;2022-12-19T07:06:42;101689.69;;;1.43;100.00
71504;BME280;59323;50.874;7.028;2022-12-19T07:09:08;101694.25;;;1.43;100.00
71504;BME280;59323;50.874;7.028;2022-12-19T07:11:33;101690.16;;;1.50;100.00
71504;BME280;59323;50.874;7.028;2022-12-19T07:13:58;101705.44;;;1.50;100.00
71504;BME280;59323;50.874;7.028;2022-12-19T07:16:24;101705.66;;;1.53;100.00
71504;BME280;59323;50.874;7.028;2022-12-19T07:18:50;101705.97;;;1.52;100.00
71504;BME280;59323;50.874;7.028;2022-12-19T07:21:16;101720.94;;;1.53;100.00
71504;BME280;59323;50.874;7.028;2022-12-19T07:23:41;101712.06;;;1.57;100.00
71504;BME280;59323;50.874;7.028;2022-12-19T07:26:07;101724.91;;;1.61;100.00
71504;BME280;59323;50.874;7.028;2022-12-19T07:28:33;101713.13;;;1.62;100.00
71504;BME280;59323;50.874;7.028;2022-12-19T07:30:59;101719.00;;;1.64;100.00
71504;BME280;59323;50.874;7.028;2022-12-19T07:33:24;101724.06;;;1.65;100.00
71504;BME280;59323;50.874;7.028;2022-12-19T07:35:50;101729.09;;;1.72;100.00
71504;BME280;59323;50.874;7.028;2022-12-19T07:38:16;101721.09;;;1.67;100.00
71504;BME280;59323;50.874;7.028;2022-12-19T07:40:41;101726.94;;;1.74;100.00
71504;BME280;59323;50.874;7.028;2022-12-19T07:43:07;101723.13;;;1.80;100.00
71504;BME280;59323;50.874;7.028;2022-12-19T07:45:32;101713.22;;;1.80;100.00
71504;BME280;59323;50.874;7.028;2022-12-19T07:48:02;101716.97;;;1.79;100.00
71504;BME280;59323;50.874;7.028;2022-12-19T07:50:28;101714.31;;;1.79;100.00
71504;BME280;59323;50.874;7.028;2022-12-19T07:52:54;101708.38;;;1.82;100.00
71504;BME280;59323;50.874;7.028;2022-12-19T07:55:19;101703.22;;;1.91;100.00
71504;BME280;59323;50.874;7.028;2022-12-19T07:57:44;101705.66;;;1.87;100.00
71504;BME280;59323;50.874;7.028;2022-12-19T08:00:10;101694.38;;;1.90;100.00
71504;BME280;59323;50.874;7.028;2022-12-19T08:02:35;101699.16;;;1.94;100.00
71504;BME280;59323;50.874;7.028;2022-12-19T08:05:02;101689.53;;;1.92;100.00
71504;BME280;59323;50.874;7.028;2022-12-19T08:07:28;101678.78;;;1.98;100.00
71504;BME280;59323;50.874;7.028;2022-12-19T08:09:53;101691.91;;;1.99;100.00
71504;BME280;59323;50.874;7.028;2022-12-19T08:12:18;101687.34;;;2.00;100.00
71504;BME280;59323;50.874;7.028;2022-12-19T08:14:44;101689.47;;;2.03;100.00
71504;BME280;59323;50.874;7.028;2022-12-19T08:17:10;101691.06;;;2.04;100.00
71504;BME280;59323;50.874;7.028;2022-12-19T08:19:35;101683.59;;;2.01;100.00
71504;BME280;59323;50.874;7.028;2022-12-19T08:22:01;101686.72;;;2.08;100.00
71504;BME280;59323;50.874;7.028;2022-12-19T08:24:26;101692.44;;;2.01;100.00
71504;BME280;59323;50.874;7.028;2022-12-19T08:26:51;101690.78;;;2.05;100.00
71504;BME280;59323;50.874;7.028;2022-12-19T08:29:17;101695.34;;;2.05;100.00
71504;BME280;59323;50.874;7.028;2022-12-19T08:31:42;101695.00;;;2.11;100.00
71504;BME280;59323;50.874;7.028;2022-12-19T08:34:07;101692.38;;;2.06;100.00
71504;BME280;59323;50.874;7.028;2022-12-19T08:36:32;101697.50;;;2.03;100.00
71504;BME280;59323;50.874;7.028;2022-12-19T08:38:58;101701.50;;;2.05;100.00
71504;BME280;59323;50.874;7.028;2022-12-19T08:41:23;101709.44;;;2.15;100.00
71504;BME280;59323;50.874;7.028;2022-12-19T08:43:50;101696.31;;;2.14;100.00
71504;BME280;59323;50.874;7.028;2022-12-19T08:46:17;101700.53;;;2.20;100.00
71504;BME280;59323;50.874;7.028;2022-12-19T08:48:42;101696.78;;;2.21;100.00
71504;BME280;59323;50.874;7.028;2022-12-19T08:51:09;101707.50;;;2.21;100.00
71504;BME280;59323;50.874;7.028;2022-12-19T08:53:38;101705.06;;;2.25;100.00
71504;BME280;59323;50.874;7.028;2022-12-19T08:56:11;101709.84;;;2.28;100.00
71504;BME280;59323;50.874;7.028;2022-12-19T08:58:37;101712.81;;;2.26;100.00
71504;BME280;59323;50.874;7.028;2022-12-19T09:01:06;101714.34;;;2.32;100.00
71504;BME280;59323;50.874;7.028;2022-12-19T09:03:33;101695.59;;;2.32;100.00
71504;BME280;59323;50.874;7.028;2022-12-19T09:06:01;101705.69;;;2.40;100.00
71504;BME280;59323;50.874;7.028;2022-12-19T09:08:28;101701.91;;;2.41;100.00
71504;BME280;59323;50.874;7.028;2022-12-19T09:10:57;101699.19;;;2.46;100.00
71504;BME280;59323;50.874;7.028;2022-12-19T09:13:24;101695.13;;;2.49;100.00
71504;BME280;59323;50.874;7.028;2022-12-19T09:15:58;101697.00;;;2.48;100.00
71504;BME280;59323;50.874;7.028;2022-12-19T09:18:23;101697.53;;;2.50;100.00
71504;BME280;59323;50.874;7.028;2022-12-19T09:20:52;101703.97;;;2.49;100.00
71504;BME280;59323;50.874;7.028;2022-12-19T09:23:17;101694.09;;;2.45;100.00
71504;BME280;59323;50.874;7.028;2022-12-19T09:25:43;101685.84;;;2.41;100.00
71504;BME280;59323;50.874;7.028;2022-12-19T09:28:08;101687.72;;;2.41;100.00
71504;BME280;59323;50.874;7.028;2022-12-19T09:30:34;101671.41;;;2.37;100.00
71504;BME280;59323;50.874;7.028;2022-12-19T09:32:59;101675.16;;;2.36;100.00
71504;BME280;59323;50.874;7.028;2022-12-19T09:35:28;101673.06;;;2.33;100.00
71504;BME280;59323;50.874;7.028;2022-12-19T09:37:54;101680.53;;;2.36;100.00
71504;BME280;59323;50.874;7.028;2022-12-19T09:40:19;101678.34;;;2.38;100.00
71504;BME280;59323;50.874;7.028;2022-12-19T09:47:47;101679.50;;;2.32;100.00
71504;BME280;59323;50.874;7.028;2022-12-19T09:53:20;101687.72;;;2.41;100.00
71504;BME280;59323;50.874;7.028;2022-12-19T09:55:48;101675.63;;;2.43;100.00
71504;BME280;59323;50.874;7.028;2022-12-19T09:58:42;101673.66;;;2.49;100.00
71504;BME280;59323;50.874;7.028;2022-12-19T10:01:22;101665.63;;;2.49;100.00
71504;BME280;59323;50.874;7.028;2022-12-19T10:04:10;101670.13;;;2.53;100.00
71504;BME280;59323;50.874;7.028;2022-12-19T10:06:36;101676.81;;;2.56;100.00
71504;BME280;59323;50.874;7.028;2022-12-19T10:09:01;101670.13;;;2.53;100.00
71504;BME280;59323;50.874;7.028;2022-12-19T10:14:36;101661.41;;;2.67;100.00
71504;BME280;59323;50.874;7.028;2022-12-19T10:17:37;101668.66;;;2.66;100.00
71504;BME280;59323;50.874;7.028;2022-12-19T10:20:28;101671.63;;;2.65;100.00
71504;BME280;59323;50.874;7.028;2022-12-19T10:25:49;101675.69;;;2.62;100.00
71504;BME280;59323;50.874;7.028;2022-12-19T10:30:57;101679.38;;;2.66;100.00
71504;BME280;59323;50.874;7.028;2022-12-19T10:33:37;101672.72;;;2.64;100.00
71504;BME280;59323;50.874;7.028;2022-12-19T10:36:09;101669.69;;;2.70;100.00
71504;BME280;59323;50.874;7.028;2022-12-19T10:41:17;101656.75;;;2.72;100.00
71504;BME280;59323;50.874;7.028;2022-12-19T10:43:52;101650.31;;;2.73;100.00
71504;BME280;59323;50.874;7.028;2022-12-19T10:46:41;101652.84;;;2.83;100.00
71504;BME280;59323;50.874;7.028;2022-12-19T10:49:21;101647.50;;;2.83;100.00
71504;BME280;59323;50.874;7.028;2022-12-19T10:52:00;101643.94;;;2.88;100.00
71504;BME280;59323;50.874;7.028;2022-12-19T11:00:14;101634.44;;;2.96;100.00
71504;BME280;59323;50.874;7.028;2022-12-19T11:02:43;101646.47;;;2.98;100.00
71504;BME280;59323;50.874;7.028;2022-12-19T11:05:26;101651.25;;;3.01;100.00
71504;BME280;59323;50.874;7.028;2022-12-19T11:12:58;101651.03;;;3.16;100.00
71504;BME280;59323;50.874;7.028;2022-12-19T11:15:23;101652.06;;;3.21;100.00
71504;BME280;59323;50.874;7.028;2022-12-19T11:17:49;101642.41;;;3.19;100.00
71504;BME280;59323;50.874;7.028;2022-12-19T11:20:20;101646.38;;;3.22;100.00
71504;BME280;59323;50.874;7.028;2022-12-19T11:22:55;101637.78;;;3.25;100.00
71504;BME280;59323;50.874;7.028;2022-12-19T11:25:32;101639.38;;;3.26;100.00
71504;BME280;59323;50.874;7.028;2022-12-19T11:28:03;101633.69;;;3.28;100.00
71504;BME280;59323;50.874;7.028;2022-12-19T11:30:30;101638.50;;;3.31;100.00
71504;BME280;59323;50.874;7.028;2022-12-19T11:33:13;101637.78;;;3.25;100.00
71504;BME280;59323;50.874;7.028;2022-12-19T11:35:49;101639.78;;;3.33;100.00
71504;BME280;59323;50.874;7.028;2022-12-19T11:38:50;101643.56;;;3.32;100.00
71504;BME280;59323;50.874;7.028;2022-12-19T11:41:12;101647.63;;;3.30;100.00
71504;BME280;59323;50.874;7.028;2022-12-19T11:43:49;101650.63;;;3.28;100.00
71504;BME280;59323;50.874;7.028;2022-12-19T11:46:24;101657.00;;;3.32;100.00
71504;BME280;59323;50.874;7.028;2022-12-19T11:52:13;101648.94;;;3.32;100.00
71504;BME280;59323;50.874;7.028;2022-12-19T11:57:19;101651.75;;;3.41;100.00
71504;BME280;59323;50.874;7.028;2022-12-19T11:59:44;101654.94;;;3.43;100.00
71504;BME280;59323;50.874;7.028;2022-12-19T12:05:04;101654.06;;;3.47;100.00
71504;BME280;59323;50.874;7.028;2022-12-19T12:07:37;101645.41;;;3.50;100.00
71504;BME280;59323;50.874;7.028;2022-12-19T12:10:13;101650.50;;;3.52;100.00
71504;BME280;59323;50.874;7.028;2022-12-19T12:15:39;101638.66;;;3.53;100.00
71504;BME280;59323;50.874;7.028;2022-12-19T12:23:28;101614.22;;;3.68;100.00
71504;BME280;59323;50.874;7.028;2022-12-19T12:39:19;101595.31;;;3.87;100.00
71504;BME280;59323;50.874;7.028;2022-12-19T12:44:40;101592.56;;;3.92;100.00
71504;BME280;59323;50.874;7.028;2022-12-19T12:47:22;101593.34;;;3.93;100.00
71504;BME280;59323;50.874;7.028;2022-12-19T12:50:03;101580.59;;;3.98;100.00
71504;BME280;59323;50.874;7.028;2022-12-19T12:52:37;101598.44;;;4.08;100.00
71504;BME280;59323;50.874;7.028;2022-12-19T12:55:06;101589.28;;;4.09;99.90
71504;BME280;59323;50.874;7.028;2022-12-19T12:57:37;101596.25;;;4.10;99.57
71504;BME280;59323;50.874;7.028;2022-12-19T13:00:29;101595.94;;;4.11;99.89
71504;BME280;59323;50.874;7.028;2022-12-19T13:03:15;101591.56;;;4.16;99.74
71504;BME280;59323;50.874;7.028;2022-12-19T13:11:06;101576.91;;;4.22;99.21
71504;BME280;59323;50.874;7.028;2022-12-19T13:13:49;101579.91;;;4.20;99.02
71504;BME280;59323;50.874;7.028;2022-12-19T13:19:23;101574.91;;;4.27;99.60
71504;BME280;59323;50.874;7.028;2022-12-19T13:24:44;101571.91;;;4.42;96.93
71504;BME280;59323;50.874;7.028;2022-12-19T13:32:33;101561.84;;;4.34;97.69
71504;BME280;59323;50.874;7.028;2022-12-19T13:38:14;101552.28;;;4.28;97.14
71504;BME280;59323;50.874;7.028;2022-12-19T13:45:53;101565.34;;;4.21;98.02
71504;BME280;59323;50.874;7.028;2022-12-19T13:50:49;101554.78;;;4.25;97.73
71504;BME280;59323;50.874;7.028;2022-12-19T13:53:16;101563.25;;;4.18;97.63
71504;BME280;59323;50.874;7.028;2022-12-19T13:55:42;101565.47;;;4.16;98.78
71504;BME280;59323;50.874;7.028;2022-12-19T13:58:50;101567.66;;;4.14;98.49
71504;BME280;59323;50.874;7.028;2022-12-19T14:01:27;101574.44;;;4.11;98.43
71504;BME280;59323;50.874;7.028;2022-12-19T14:03:56;101561.97;;;4.16;98.64
71504;BME280;59323;50.874;7.028;2022-12-19T14:06:30;101560.28;;;4.20;98.23
71504;BME280;59323;50.874;7.028;2022-12-19T14:09:05;101553.78;;;4.21;98.39
71504;BME280;59323;50.874;7.028;2022-12-19T14:11:39;101541.16;;;4.21;98.18
71504;BME280;59323;50.874;7.028;2022-12-19T14:14:07;101543.16;;;4.16;99.38
71504;BME280;59323;50.874;7.028;2022-12-19T14:17:04;101534.78;;;4.17;98.80
71504;BME280;59323;50.874;7.028;2022-12-19T14:19:38;101534.97;;;4.21;98.54
71504;BME280;59323;50.874;7.028;2022-12-19T14:22:19;101523.59;;;4.24;98.87
71504;BME280;59323;50.874;7.028;2022-12-19T14:25:02;101522.63;;;4.20;99.07
71504;BME280;59323;50.874;7.028;2022-12-19T14:29:57;101514.75;;;4.23;99.16
71504;BME280;59323;50.874;7.028;2022-12-19T14:32:24;101528.78;;;4.20;99.26
71504;BME280;59323;50.874;7.028;2022-12-19T14:34:50;101523.72;;;4.19;98.97
71504;BME280;59323;50.874;7.028;2022-12-19T14:37:31;101526.91;;;4.21;99.57
71504;BME280;59323;50.874;7.028;2022-12-19T14:39:58;101532.47;;;4.24;99.84
71504;BME280;59323;50.874;7.028;2022-12-19T14:42:27;101524.22;;;4.21;99.29
71504;BME280;59323;50.874;7.028;2022-12-19T14:45:31;101538.03;;;4.28;99.81
71504;BME280;59323;50.874;7.028;2022-12-19T14:47:57;101535.84;;;4.30;99.59
71504;BME280;59323;50.874;7.028;2022-12-19T14:50:34;101536.94;;;4.29;99.63
71504;BME280;59323;50.874;7.028;2022-12-19T14:53:08;101537.13;;;4.32;99.88
71504;BME280;59323;50.874;7.028;2022-12-19T14:55:35;101537.13;;;4.32;99.83
71504;BME280;59323;50.874;7.028;2022-12-19T14:58:09;101534.34;;;4.37;99.45
71504;BME280;59323;50.874;7.028;2022-12-19T15:00:45;101522.97;;;4.40;99.56
71504;BME280;59323;50.874;7.028;2022-12-19T15:03:17;101510.00;;;4.42;99.59
71504;BME280;59323;50.874;7.028;2022-12-19T15:05:44;101511.47;;;4.49;99.26
71504;BME280;59323;50.874;7.028;2022-12-19T15:08:10;101503.03;;;4.55;98.42